Weather reports worldwide

Advertisment
Zugspitze, Germany (10961): temperature & dewpoint: 07.07.2020 06:00:00 - 13.07.2020 06:00:00 (CEST)Zugspitze, Germany (10961): wind speed & gusts: 07.07.2020 06:00:00 - 13.07.2020 06:00:00 (CEST)Zugspitze, Germany (10961): wind direction: 07.07.2020 06:00:00 - 13.07.2020 06:00:00 (CEST)Zugspitze, Germany (10961): visibility: 07.07.2020 06:00:00 - 13.07.2020 06:00:00 (CEST)Zugspitze, Germany (10961): sunshine duration: 07.07.2020 06:00:00 - 13.07.2020 06:00:00 (CEST)
Date & Time tt [°C] td [°C] ff [km/h] ff [kn] fx [km/h] fx [kn] dd vv [km] sd [min]
13.07.2020 06:00:00 1,1 -3,9 23 12 39 21 WSW 63 16
13.07.2020 05:00:00 0,8 -9,4 26 14 37 20 WSW 68 0
13.07.2020 04:00:00 1,1 -12,3 24 13 36 20 WSW 75 0
13.07.2020 03:00:00 1,0 -10,0 22 12 33 18 WSW 59 0
13.07.2020 02:00:00 1,2 -6,7 26 14 41 22 WSW 64 0
13.07.2020 01:00:00 1,6 -8,6 23 13 43 23 SW 75 0
13.07.2020 00:00:00 1,8 -6,6 26 14 40 22 WSW 72 0
12.07.2020 23:00:00 1,7 -5,8 23 12 40 21 WSW 59 0
12.07.2020 22:00:00 1,5 -2,7 30 16 41 22 WSW 58 13
12.07.2020 21:00:00 1,3 0,6 26 14 39 21 WSW 0,6 40
12.07.2020 20:00:00 1,7 1,0 17 9 31 17 WSW 0,1 12
12.07.2020 19:00:00 1,4 0,7 17 9 29 16 WSW 0,1 12
12.07.2020 18:00:00 2,1 0,4 12 6 23 12 WSW 0,1 36
12.07.2020 17:00:00 2,5 0,1 9 5 24 13 WSW 0,3 46
12.07.2020 16:00:00 1,8 0,0 10 5 29 16 W 0,1 50
12.07.2020 15:00:00 2,3 -0,8 10 5 21 11 SSW 40 54
12.07.2020 14:00:00 2,0 0,4 7 4 18 10 S 65 17
12.07.2020 13:00:00 0,7 -0,5 8 5 15 8 SSE 1,1 17
12.07.2020 12:00:00 0,4 -0,8 7 4 13 7 SSE 0,7 58
12.07.2020 11:00:00 0,2 -1,3 7 4 14 8 SSE 4,2 46
12.07.2020 10:00:00 -1,0 -2,1 4 2 12 7 WSW 0,1 54
12.07.2020 09:00:00 -0,7 -1,9 4 2 8 4 ESE 0,1 16
12.07.2020 08:00:00 -1,8 -2,5 3 2 15 8 N 0,1 51
12.07.2020 07:00:00 -2,4 -3,3 9 5 16 9 NNW 38 60
12.07.2020 06:00:00 -2,2 -2,5 8 4 19 10 W 17 11
12.07.2020 05:00:00 -2,0 -2,0 8 5 16 9 WSW 0,1 0
12.07.2020 04:00:00 -1,8 -1,8 6 3 17 9 W 0,1 0
12.07.2020 03:00:00 -1,7 -1,9 9 5 15 8 WNW 0,1 0
12.07.2020 02:00:00 -1,3 -1,4 7 4 14 8 NW 0,1 0
12.07.2020 01:00:00 -1,1 -1,1 4 2 11 6 NNW 0,1 0
12.07.2020 00:00:00 -1,0 -1,1 6 3 14 8 NNW - 0
11.07.2020 23:00:00 -1,0 -1,0 9 5 26 14 WNW 0,1 0
11.07.2020 22:00:00 -0,8 -0,9 10 6 19 10 NNW - 0
11.07.2020 21:00:00 -1,3 -1,5 8 5 16 8 NNW - 0
11.07.2020 20:00:00 -0,7 -0,7 5 3 20 11 N - 0
11.07.2020 19:00:00 -0,4 -0,4 9 5 25 14 N - 0
11.07.2020 18:00:00 -0,4 -0,5 14 8 22 12 NNW - 0
11.07.2020 17:00:00 0,1 0,0 10 6 20 11 NNW - 0
11.07.2020 16:00:00 0,4 0,4 4 2 15 8 NNW 0,1 0
11.07.2020 15:00:00 1,0 1,0 5 3 15 8 N 0,1 0
11.07.2020 14:00:00 1,1 1,1 9 5 17 9 NNW 0,1 0
11.07.2020 13:00:00 1,5 1,5 8 4 27 15 NNW - 0
11.07.2020 12:00:00 0,8 0,8 8 5 23 12 NNW - 0
11.07.2020 11:00:00 0,1 0,1 16 8 34 18 NNW - 0
11.07.2020 10:00:00 0,1 0,1 22 12 46 25 NW 0,1 0
11.07.2020 09:00:00 0,0 -0,1 27 15 41 22 NNW - 0
11.07.2020 08:00:00 0,0 -0,2 25 14 39 21 NNW 0,1 0
11.07.2020 07:00:00 1,9 1,9 5 3 19 10 NNW 0,1 0
11.07.2020 06:00:00 2,2 2,2 16 9 29 16 NNW 0,1 0
11.07.2020 05:00:00 2,1 2,1 22 12 36 19 W 0,4 0
11.07.2020 04:00:00 3,5 3,5 18 10 39 21 W - 0
11.07.2020 03:00:00 3,7 2,7 26 14 35 19 SW 2,2 0
11.07.2020 02:00:00 4,0 2,8 29 16 41 22 SSW 10 0
11.07.2020 01:00:00 4,2 3,0 19 11 45 24 SW 46 0
11.07.2020 00:00:00 3,8 2,5 37 20 63 34 SW 53 0
10.07.2020 23:00:00 4,1 3,5 20 11 37 20 WSW 37 0
10.07.2020 22:00:00 5,0 2,7 27 15 38 20 WSW 46 0
10.07.2020 21:00:00 5,2 2,6 26 14 58 31 WSW 47 0
10.07.2020 20:00:00 5,1 3,3 37 20 83 45 WSW 52 0
10.07.2020 19:00:00 5,8 5,8 16 9 45 25 WSW - 0
10.07.2020 18:00:00 4,9 4,9 14 7 34 19 SSE 1,4 1
10.07.2020 17:00:00 6,9 6,6 8 5 30 16 E - 0
10.07.2020 16:00:00 8,5 7,4 5 3 14 8 NW 0,4 33
10.07.2020 15:00:00 10,6 6,2 9 5 22 12 SE 47 32
10.07.2020 14:00:00 11,5 4,9 11 6 25 13 SE 57 43
10.07.2020 13:00:00 10,9 2,4 11 6 25 13 SW 57 55
10.07.2020 12:00:00 10,8 1,0 11 6 44 24 S 55 60
10.07.2020 11:00:00 8,9 -0,5 31 17 47 25 SW 66 60
10.07.2020 10:00:00 8,2 -0,4 32 18 46 25 SSW 62 60
10.07.2020 09:00:00 7,7 0,6 28 15 40 22 SSW 72 60
10.07.2020 08:00:00 6,9 0,7 22 12 57 31 SW 56 60
10.07.2020 07:00:00 6,5 0,0 30 16 53 29 WSW 63 60
10.07.2020 06:00:00 6,3 1,6 29 16 50 27 WSW 67 18
10.07.2020 05:00:00 6,4 0,9 33 18 48 26 WSW 65 0
10.07.2020 04:00:00 6,5 0,1 28 15 47 25 WSW 69 0
10.07.2020 03:00:00 6,2 -0,7 19 11 40 22 WNW 59 0
10.07.2020 02:00:00 6,6 -1,7 20 11 44 24 W 75 0
10.07.2020 01:00:00 6,8 -0,2 25 14 52 28 WSW 71 0
10.07.2020 00:00:00 7,0 -0,3 27 15 54 29 WSW 63 0
09.07.2020 23:00:00 6,9 -0,5 31 17 49 27 WSW 65 0
09.07.2020 22:00:00 6,7 1,9 23 12 46 25 WSW 67 21
09.07.2020 21:00:00 7,5 2,0 22 12 46 25 W 56 60
09.07.2020 20:00:00 7,7 4,7 14 8 32 17 W 50 60
09.07.2020 19:00:00 8,8 4,6 6 3 19 10 NW 57 59
09.07.2020 18:00:00 8,3 4,4 6 3 22 12 W 58 60
09.07.2020 17:00:00 9,7 4,4 8 4 27 14 SW 70 60
09.07.2020 16:00:00 9,4 2,1 18 10 32 17 SSW 75 60
09.07.2020 15:00:00 8,7 2,5 15 8 29 16 SSW 55 57
09.07.2020 14:00:00 8,5 2,4 18 10 33 18 S 54 60
09.07.2020 13:00:00 7,9 0,7 17 9 35 19 SE 75 48
09.07.2020 12:00:00 7,0 0,0 19 10 32 17 SW 75 60
09.07.2020 11:00:00 5,5 -1,0 19 10 38 21 WSW 65 60
09.07.2020 10:00:00 4,7 -2,8 22 12 44 24 WSW 65 60
09.07.2020 09:00:00 4,2 -2,3 26 14 45 25 WSW 51 60
09.07.2020 08:00:00 3,4 -0,4 20 11 41 22 W 64 60
09.07.2020 07:00:00 3,1 -0,3 17 9 44 24 WNW 51 60
09.07.2020 06:00:00 3,1 -1,1 25 14 45 25 WSW 60 10
09.07.2020 05:00:00 2,9 -0,3 29 16 49 27 WSW 61 0
09.07.2020 04:00:00 2,7 0,0 36 19 63 34 WSW 60 0
09.07.2020 03:00:00 2,7 -1,0 40 22 61 33 WSW 59 0
09.07.2020 02:00:00 2,2 0,9 26 14 43 23 WSW 48 0
09.07.2020 01:00:00 2,3 -0,2 22 12 42 23 WSW 52 0
09.07.2020 00:00:00 2,2 -1,5 14 8 39 21 WNW 66 0
08.07.2020 23:00:00 2,4 -1,4 15 8 42 23 W 61 0
08.07.2020 22:00:00 2,7 0,0 22 12 48 26 WNW 58 4
08.07.2020 21:00:00 3,1 1,0 21 11 42 23 W 58 11
08.07.2020 20:00:00 3,7 0,5 21 11 47 26 W 48 3
08.07.2020 19:00:00 4,0 1,1 17 9 39 21 NW 55 21
08.07.2020 18:00:00 4,5 1,2 16 9 41 22 W 41 40
08.07.2020 17:00:00 5,8 1,9 18 10 39 21 WSW 57 60
08.07.2020 16:00:00 5,5 1,9 19 10 38 20 WSW 60 58
08.07.2020 15:00:00 4,7 2,4 9 5 40 22 WNW 44 59
08.07.2020 14:00:00 5,7 0,9 16 9 35 19 WSW 60 60
08.07.2020 13:00:00 5,0 -1,2 25 14 54 29 SW 53 60
08.07.2020 12:00:00 3,8 -4,7 34 18 56 30 WSW 52 60
08.07.2020 11:00:00 3,6 -6,8 35 19 55 30 WSW 70 60
08.07.2020 10:00:00 2,9 -11,8 31 17 49 26 WSW 58 60
08.07.2020 09:00:00 2,3 -13,1 26 14 40 22 WSW 75 60
08.07.2020 08:00:00 1,9 -12,6 19 10 42 23 WSW 54 60
08.07.2020 07:00:00 1,0 -7,6 16 9 43 23 WNW 67 60
08.07.2020 06:00:00 1,1 -10,5 24 13 51 27 WSW 59 24
08.07.2020 05:00:00 1,0 -11,0 24 13 54 29 WSW 64 0
08.07.2020 04:00:00 1,2 -11,9 28 15 56 31 WSW 68 0
08.07.2020 03:00:00 1,1 -10,7 29 16 53 28 WSW 68 0
08.07.2020 02:00:00 0,8 -8,2 31 17 50 27 WSW 57 0
08.07.2020 01:00:00 0,3 -4,0 30 16 50 27 WSW 21 0
08.07.2020 00:00:00 0,6 -3,4 34 18 59 32 WSW 64 0
07.07.2020 23:00:00 0,6 -4,0 29 15 51 27 WSW 55 0
07.07.2020 22:00:00 0,8 -2,4 35 19 53 29 WSW 14 24
07.07.2020 21:00:00 1,2 -0,3 35 19 50 27 WSW 1,1 53
07.07.2020 20:00:00 1,4 1,1 29 16 39 21 WSW 0,1 20
07.07.2020 19:00:00 1,6 1,2 15 8 33 18 WSW 0,1 24
07.07.2020 18:00:00 1,9 -0,7 15 8 34 19 SW 0,2 36
07.07.2020 17:00:00 1,5 -0,2 18 10 33 18 WSW 0,8 59
07.07.2020 16:00:00 1,6 -2,5 13 7 24 13 SW 54 59
07.07.2020 15:00:00 -0,1 -10,0 10 6 21 12 SW 45 52
07.07.2020 14:00:00 0,2 -2,7 8 5 16 9 SSE 3,9 58
07.07.2020 13:00:00 -2,1 -6,9 5 3 14 8 SSW 66 59
07.07.2020 12:00:00 -3,9 -8,8 4 2 16 9 N 67 60
07.07.2020 11:00:00 -5,7 -10,5 9 5 22 12 N 75 60
07.07.2020 10:00:00 -6,1 -8,9 14 7 21 12 N 74 60
07.07.2020 09:00:00 -6,4 -7,7 8 5 25 13 NNW 57 60
07.07.2020 08:00:00 -4,7 -5,2 14 8 28 15 WNW 0,1 6
07.07.2020 07:00:00 -4,8 -5,0 13 7 32 17 W 0,1 0
07.07.2020 06:00:00 -4,9 -5,3 12 6 30 16 NW 0,2 0

tt = temperature
td = dewpoint
ff = wind speed
fx = gusts
dd = wind direction
vv = visibility
sd = sunshine duration

Next stations